KSPF/SPF METAR and TAF weather

Enter ICAO airport designator
Station Type Date Time Source
KSPF METAR 2024/02/26 17:15 UTC NOAA

KSPF 261715Z AUTO 23019G28KT 10SM CLR 13/M08 A2942 RMK AO2


Station Type Date Time Source
KSPF Decoded METAR 2024/02/26 17:15 UTC NOAA

Spearfish / Clyde Ice, SD, United States (KSPF) 44-29N 103-47W
Feb 26, 2024 - 12:15 PM EST / 2024.02.26 1715 UTC
Wind: from the SW (230 degrees) at 22 MPH (19 KT) gusting to 32 MPH (28 KT):0
Visibility: 10 mile(s):0
Sky conditions: clear
Temperature: 55 F (13 C)
Dew Point: 17 F (-8 C)
Relative Humidity: 22%
Pressure (altimeter): 29.42 in. Hg (996 hPa)
ob: KSPF 261715Z AUTO 23019G28KT 10SM CLR 13/M08 A2942 RMK AO2
cycle: 17

Station Type Date Time Source
KSPF TAF UTC NOAA

Error!

Example: see airport list